Time;durP1;ratioP1;P1;durP2;ratioP2;P2;SDS_P1;SDS_P2;PMS_P1;PMS_P2;Temp;Humidity;BMP_temperature;BMP_pressure;BME280_temperature;BME280_humidity;BME280_pressure;Samples;Min_cycle;Max_cycle;Signal;HPM_P1;HPM_P2
2023/04/14 00:02:21;;;;;;;;;;;;;;;9.79;76.48;99662.00;102562;278;114379;-60
2023/04/14 00:04:59;;;;;;;;;;;;;;;9.76;76.72;99663.05;102598;277;97275;-60
2023/04/14 00:07:42;;;;;;;;;;;;;;;9.74;76.71;99666.29;102580;278;97672;-59
2023/04/14 00:10:16;;;;;;;;;;;;;;;9.71;76.95;99671.59;102551;277;118688;-59
2023/04/14 00:12:56;;;;;;;;;;;;;;;9.69;76.75;99675.07;102528;277;105504;-60
2023/04/14 00:15:35;;;;;;;;;;;;;;;9.67;76.84;99674.47;102662;276;114011;-55
2023/04/14 00:18:20;;;;;;;;;;;;;;;9.69;77.03;99670.83;102723;277;96144;-54
2023/04/14 00:21:01;;;;;;;;;;;;;;;9.73;77.22;99664.92;102544;277;99590;-59
2023/04/14 00:23:39;;;;;;;;;;;;;;;9.73;77.13;99665.08;102708;277;120254;-59
2023/04/14 00:26:17;;;;;;;;;;;;;;;9.74;77.24;99661.48;102784;277;104607;-57
2023/04/14 00:28:51;;;;;;;;;;;;;;;9.73;77.45;99664.17;102684;277;114516;-56
2023/04/14 00:31:26;;;;;;;;;;;;;;;9.73;77.39;99667.98;102735;277;94288;-60
2023/04/14 00:34:07;;;;;;;;;;;;;;;9.68;77.72;99663.14;102693;276;97117;-60
2023/04/14 00:36:47;;;;;;;;;;;;;;;9.64;77.50;99664.51;102557;277;119238;-60
2023/04/14 00:39:25;;;;;;;;;;;;;;;9.58;77.49;99659.21;102564;277;106127;-60
2023/04/14 00:42:04;;;;;;;;;;;;;;;9.50;77.42;99655.73;102778;277;115454;-56
2023/04/14 00:44:41;;;;;;;;;;;;;;;9.44;77.44;99655.66;102734;277;96643;-53
2023/04/14 00:47:26;;;;;;;;;;;;;;;9.35;77.55;99653.59;102715;277;97443;-59
2023/04/14 00:50:03;;;;;;;;;;;;;;;9.29;77.73;99653.84;102727;277;118722;-59
2023/04/14 00:52:43;;;;;;;;;;;;;;;9.26;77.85;99654.08;102741;277;103874;-61
2023/04/14 00:55:23;;;;;;;;;;;;;;;9.24;78.08;99652.49;102702;277;114423;-60
2023/04/14 00:58:03;;;;;;;;;;;;;;;9.21;78.26;99649.48;102713;277;97084;-59
2023/04/14 01:00:37;;;;;;;;;;;;;;;9.19;78.07;99645.83;102525;278;96835;-55
2023/04/14 01:03:18;;;;;;;;;;;;;;;9.19;78.23;99645.48;102745;277;120108;-55
2023/04/14 01:05:59;;;;;;;;;;;;;;;9.21;78.25;99648.54;102758;277;105527;-60
2023/04/14 01:08:34;;;;;;;;;;;;;;;9.22;78.32;99651.16;102710;277;115526;-60
2023/04/14 01:11:17;;;;;;;;;;;;;;;9.22;78.24;99653.52;102774;277;92948;-55
2023/04/14 01:14:00;;;;;;;;;;;;;;;9.19;78.17;99660.38;102729;277;98129;-56
2023/04/14 01:16:40;;;;;;;;;;;;;;;9.11;78.05;99664.06;102763;277;119785;-58
2023/04/14 01:19:33;;;;;;;;;;;;;;;8.91;77.89;99659.41;102729;277;105979;-61
2023/04/14 01:22:16;;;;;;;;;;;;;;;8.73;77.76;99661.06;102754;277;113737;-56
2023/04/14 01:25:07;;;;;;;;;;;;;;;8.59;77.75;99660.70;102715;277;92862;-56
2023/04/14 01:27:46;;;;;;;;;;;;;;;8.43;77.89;99663.95;102172;277;751503;-59
2023/04/14 01:30:35;;;;;;;;;;;;;;;8.26;77.79;99666.71;102671;277;120338;-57
2023/04/14 01:33:15;;;;;;;;;;;;;;;8.06;77.86;99667.50;102745;277;104373;-56
2023/04/14 01:35:51;;;;;;;;;;;;;;;7.93;78.04;99665.20;102713;277;113289;-55
2023/04/14 01:38:29;;;;;;;;;;;;;;;7.85;78.18;99666.23;102711;277;97419;-55
2023/04/14 01:41:06;;;;;;;;;;;;;;;7.80;78.32;99665.39;102729;277;97365;-60
2023/04/14 01:43:44;;;;;;;;;;;;;;;7.77;78.45;99665.40;102714;277;118732;-58
2023/04/14 01:46:22;;;;;;;;;;;;;;;7.71;78.54;99665.86;102722;277;106247;-60
2023/04/14 01:48:57;;;;;;;;;;;;;;;7.66;78.83;99663.65;102754;277;111995;-59
2023/04/14 01:51:32;;;;;;;;;;;;;;;7.62;78.82;99662.16;102713;277;97702;-57
2023/04/14 01:54:11;;;;;;;;;;;;;;;7.68;79.14;99660.44;102774;277;96798;-56
2023/04/14 01:56:50;;;;;;;;;;;;;;;7.76;79.26;99665.76;102745;277;119645;-61
2023/04/14 01:59:35;;;;;;;;;;;;;;;7.80;79.47;99665.95;102745;277;105280;-60
2023/04/14 02:02:10;;;;;;;;;;;;;;;7.84;79.93;99669.02;102719;277;114861;-56
2023/04/14 02:04:44;;;;;;;;;;;;;;;7.84;80.22;99668.73;102731;277;94163;-59
2023/04/14 02:07:18;;;;;;;;;;;;;;;7.81;80.38;99671.02;102773;277;97884;-57
2023/04/14 02:09:56;;;;;;;;;;;;;;;7.80;80.52;99675.30;102741;277;120486;-56
2023/04/14 02:12:39;;;;;;;;;;;;;;;7.76;80.81;99675.72;102769;277;104212;-60
2023/04/14 02:15:17;;;;;;;;;;;;;;;7.75;80.93;99669.51;102695;277;114099;-60
2023/04/14 02:17:58;;;;;;;;;;;;;;;7.71;81.39;99671.33;102703;277;96715;-60
2023/04/14 02:20:44;;;;;;;;;;;;;;;7.75;81.42;99676.21;102737;277;98010;-60
2023/04/14 02:23:24;;;;;;;;;;;;;;;7.78;81.43;99675.77;102751;277;120341;-58
2023/04/14 02:26:08;;;;;;;;;;;;;;;7.80;81.61;99673.11;102732;277;104632;-60
2023/04/14 02:28:52;;;;;;;;;;;;;;;7.82;81.78;99673.06;102732;277;113919;-60
2023/04/14 02:31:33;;;;;;;;;;;;;;;7.83;82.24;99673.15;102758;277;96702;-55
2023/04/14 02:34:17;;;;;;;;;;;;;;;7.88;82.21;99672.23;102721;277;96401;-56
2023/04/14 02:36:59;;;;;;;;;;;;;;;7.89;82.09;99671.58;102727;277;119276;-59
2023/04/14 02:39:37;;;;;;;;;;;;;;;7.89;82.07;99674.08;102742;277;105337;-58
2023/04/14 02:42:13;;;;;;;;;;;;;;;7.91;82.16;99675.15;102668;277;115186;-57
2023/04/14 02:44:54;;;;;;;;;;;;;;;7.89;82.40;99678.14;102703;277;96610;-58
2023/04/14 02:47:41;;;;;;;;;;;;;;;7.88;82.34;99678.55;102730;277;97395;-61
2023/04/14 02:50:26;;;;;;;;;;;;;;;7.88;82.46;99671.39;102703;277;120073;-60
2023/04/14 02:53:04;;;;;;;;;;;;;;;7.89;82.48;99671.56;102768;277;104772;-62
2023/04/14 02:55:43;;;;;;;;;;;;;;;7.89;82.63;99674.84;102725;277;114732;-58
2023/04/14 02:58:21;;;;;;;;;;;;;;;7.87;82.51;99676.93;102724;277;94516;-59
2023/04/14 03:00:58;;;;;;;;;;;;;;;7.78;82.56;99674.66;102755;277;95697;-58
2023/04/14 03:03:37;;;;;;;;;;;;;;;7.73;82.39;99678.95;102729;269;119948;-58
2023/04/14 03:06:15;;;;;;;;;;;;;;;7.68;82.62;99684.60;102721;277;105498;-55
2023/04/14 03:08:54;;;;;;;;;;;;;;;7.60;82.62;99680.60;102723;277;115157;-55
2023/04/14 03:11:31;;;;;;;;;;;;;;;7.54;82.58;99679.35;102707;277;96984;-59
2023/04/14 03:14:07;;;;;;;;;;;;;;;7.53;82.57;99679.48;102740;277;97747;-61
2023/04/14 03:16:40;;;;;;;;;;;;;;;7.51;82.99;99682.80;102734;277;120431;-59
2023/04/14 03:19:14;;;;;;;;;;;;;;;7.47;82.93;99682.02;102723;277;105404;-59
2023/04/14 03:21:48;;;;;;;;;;;;;;;7.46;82.88;99685.72;102752;277;113779;-60
2023/04/14 03:24:30;;;;;;;;;;;;;;;7.47;83.13;99685.40;102713;277;96553;-59
2023/04/14 03:27:08;;;;;;;;;;;;;;;7.47;83.11;99685.98;102776;277;97416;-61
2023/04/14 03:29:47;;;;;;;;;;;;;;;7.47;83.09;99686.35;102724;265;119282;-60
2023/04/14 03:32:25;;;;;;;;;;;;;;;7.50;83.33;99688.05;102714;277;104414;-55
2023/04/14 03:35:03;;;;;;;;;;;;;;;7.51;83.25;99688.55;102754;277;114789;-56
2023/04/14 03:37:39;;;;;;;;;;;;;;;7.50;83.28;99690.04;102751;277;94753;-55
2023/04/14 03:40:14;;;;;;;;;;;;;;;7.42;83.43;99692.66;102755;277;96699;-55
2023/04/14 03:42:54;;;;;;;;;;;;;;;7.42;83.34;99692.90;102736;277;117589;-55
2023/04/14 03:45:31;;;;;;;;;;;;;;;7.34;83.33;99694.54;102713;277;105689;-56
2023/04/14 03:48:10;;;;;;;;;;;;;;;7.28;83.26;99702.42;102730;277;114987;-56
2023/04/14 03:50:50;;;;;;;;;;;;;;;7.26;83.30;99702.67;102726;277;97084;-60
2023/04/14 03:53:28;;;;;;;;;;;;;;;7.26;83.29;99705.23;102710;277;98043;-60
2023/04/14 03:56:12;;;;;;;;;;;;;;;7.28;83.47;99707.05;102757;277;119197;-55
2023/04/14 03:58:51;;;;;;;;;;;;;;;7.32;83.49;99706.28;102709;277;106580;-55
2023/04/14 04:01:26;;;;;;;;;;;;;;;7.33;83.82;99709.48;102743;277;114417;-55
2023/04/14 04:04:06;;;;;;;;;;;;;;;7.33;83.77;99713.16;102537;278;96100;-55
2023/04/14 04:06:43;;;;;;;;;;;;;;;7.40;83.94;99709.61;102734;277;97054;-56
2023/04/14 04:09:18;;;;;;;;;;;;;;;7.52;83.97;99708.42;102771;277;119740;-56
2023/04/14 04:11:57;;;;;;;;;;;;;;;7.63;84.22;99710.77;102770;277;105610;-55
2023/04/14 04:14:39;;;;;;;;;;;;;;;7.75;84.62;99708.00;102725;277;113254;-56
2023/04/14 04:17:25;;;;;;;;;;;;;;;7.82;84.80;99711.60;102750;277;93848;-58
2023/04/14 04:20:06;;;;;;;;;;;;;;;7.94;84.59;99709.65;102748;277;97856;-58
2023/04/14 04:22:44;;;;;;;;;;;;;;;7.97;84.66;99709.65;102749;277;119064;-60
2023/04/14 04:25:21;;;;;;;;;;;;;;;8.00;84.76;99707.86;102754;277;105211;-58
2023/04/14 04:28:01;;;;;;;;;;;;;;;7.97;84.75;99718.91;102733;277;113093;-57
2023/04/14 04:30:39;;;;;;;;;;;;;;;7.96;84.92;99718.23;102714;277;97229;-56
2023/04/14 04:33:16;;;;;;;;;;;;;;;8.02;84.86;99719.08;102736;277;97363;-56
2023/04/14 04:35:49;;;;;;;;;;;;;;;8.03;85.22;99721.10;102734;277;120411;-57
2023/04/14 04:38:26;;;;;;;;;;;;;;;8.06;85.00;99723.11;102720;277;106185;-58
2023/04/14 04:41:04;;;;;;;;;;;;;;;8.10;85.11;99725.05;102731;277;115057;-60
2023/04/14 04:43:42;;;;;;;;;;;;;;;8.12;85.38;99725.70;102747;277;96644;-60
2023/04/14 04:46:30;;;;;;;;;;;;;;;8.17;85.25;99729.81;102764;277;97893;-58
2023/04/14 04:49:09;;;;;;;;;;;;;;;8.25;85.15;99731.23;102735;277;118462;-60
2023/04/14 04:51:52;;;;;;;;;;;;;;;8.33;85.28;99733.49;102742;277;105897;-56
2023/04/14 04:54:32;;;;;;;;;;;;;;;8.36;85.24;99735.31;102711;277;115134;-56
2023/04/14 04:57:11;;;;;;;;;;;;;;;8.43;85.07;99738.56;102727;277;95087;-55
2023/04/14 04:59:52;;;;;;;;;;;;;;;8.44;85.61;99738.62;102716;277;97914;-55
2023/04/14 05:02:29;;;;;;;;;;;;;;;8.43;85.72;99737.63;102732;277;119342;-55
2023/04/14 05:05:05;;;;;;;;;;;;;;;8.40;85.29;99738.88;102723;277;104986;-56
2023/04/14 05:07:39;;;;;;;;;;;;;;;8.42;85.39;99732.55;102729;277;115064;-56
2023/04/14 05:10:12;;;;;;;;;;;;;;;8.45;85.33;99733.59;102699;277;95494;-56
2023/04/14 05:12:48;;;;;;;;;;;;;;;8.51;85.54;99733.39;102742;277;96933;-59
2023/04/14 05:15:30;;;;;;;;;;;;;;;8.53;85.83;99734.95;102767;277;117965;-55
2023/04/14 05:18:05;;;;;;;;;;;;;;;8.66;85.76;99737.47;102734;277;106487;-60
2023/04/14 05:20:44;;;;;;;;;;;;;;;8.74;85.73;99738.30;102714;277;114102;-58
2023/04/14 05:23:27;;;;;;;;;;;;;;;8.83;85.87;99739.56;102720;277;95784;-58
2023/04/14 05:26:09;;;;;;;;;;;;;;;8.89;85.79;99739.00;102715;277;97676;-54
2023/04/14 05:28:43;;;;;;;;;;;;;;;8.96;85.90;99736.61;102726;277;119425;-54
2023/04/14 05:31:22;;;;;;;;;;;;;;;9.05;85.98;99739.62;102762;277;104698;-55
2023/04/14 05:34:04;;;;;;;;;;;;;;;9.10;86.12;99741.70;102700;277;114335;-55
2023/04/14 05:36:43;;;;;;;;;;;;;;;9.18;86.27;99739.68;102722;277;96942;-57
2023/04/14 05:39:17;;;;;;;;;;;;;;;9.21;86.17;99740.02;102730;277;97395;-58
2023/04/14 05:41:55;;;;;;;;;;;;;;;9.35;85.81;99740.34;102713;277;119518;-55
2023/04/14 05:44:37;;;;;;;;;;;;;;;9.44;85.81;99740.23;102722;277;105986;-54
2023/04/14 05:47:14;;;;;;;;;;;;;;;9.49;85.65;99740.84;102710;277;113975;-58
2023/04/14 05:49:50;;;;;;;;;;;;;;;9.45;85.67;99740.81;102745;277;94874;-60
2023/04/14 05:52:29;;;;;;;;;;;;;;;9.47;85.56;99742.70;102695;277;98216;-58
2023/04/14 05:55:06;;;;;;;;;;;;;;;9.51;85.49;99743.66;102709;277;120826;-58
2023/04/14 05:57:44;;;;;;;;;;;;;;;9.56;85.45;99741.42;102744;277;104663;-59
2023/04/14 06:00:24;;;;;;;;;;;;;;;9.55;85.53;99745.65;102694;277;114351;-58
2023/04/14 06:03:01;;;;;;;;;;;;;;;9.63;85.42;99741.71;102714;277;96491;-57
2023/04/14 06:05:34;;;;;;;;;;;;;;;9.82;85.33;99739.20;102771;277;97954;-58
2023/04/14 06:08:13;;;;;;;;;;;;;;;9.91;85.25;99743.34;102730;277;119291;-60
2023/04/14 06:10:49;;;;;;;;;;;;;;;10.00;84.98;99741.44;102753;277;103354;-56
2023/04/14 06:13:30;;;;;;;;;;;;;;;10.02;85.17;99745.55;102551;277;114736;-56
2023/04/14 06:16:05;;;;;;;;;;;;;;;10.14;84.88;99749.71;102767;277;96152;-58
2023/04/14 06:18:41;;;;;;;;;;;;;;;10.29;84.74;99745.01;102769;277;95811;-57
2023/04/14 06:21:19;;;;;;;;;;;;;;;10.54;84.48;99748.35;102735;277;120084;-55
2023/04/14 06:23:55;;;;;;;;;;;;;;;10.67;84.27;99750.86;102749;277;106234;-56
2023/04/14 06:26:27;;;;;;;;;;;;;;;10.79;84.14;99748.64;102796;277;115042;-59
2023/04/14 06:29:06;;;;;;;;;;;;;;;10.80;83.99;99753.62;102746;277;93970;-59
2023/04/14 06:31:45;;;;;;;;;;;;;;;10.81;83.68;99752.16;102789;277;97504;-56
2023/04/14 06:34:24;;;;;;;;;;;;;;;10.96;83.54;99749.80;102755;277;120268;-56
2023/04/14 06:37:00;;;;;;;;;;;;;;;11.35;83.31;99753.08;102761;277;105467;-56
2023/04/14 06:39:42;;;;;;;;;;;;;;;11.61;82.88;99753.06;102748;277;113845;-57
2023/04/14 06:42:21;;;;;;;;;;;;;;;12.16;82.61;99750.91;102708;277;96934;-55
2023/04/14 06:44:54;;;;;;;;;;;;;;;12.37;82.07;99746.69;102753;277;98084;-53
2023/04/14 06:47:28;;;;;;;;;;;;;;;12.28;81.47;99753.56;102748;277;120828;-60
2023/04/14 06:50:02;;;;;;;;;;;;;;;12.24;80.99;99753.10;102772;277;103283;-59
2023/04/14 06:52:36;;;;;;;;;;;;;;;12.22;80.73;99749.92;102750;277;113357;-58
2023/04/14 06:55:09;;;;;;;;;;;;;;;12.45;80.50;99746.70;102740;277;92789;-60
2023/04/14 06:57:47;;;;;;;;;;;;;;;12.67;80.15;99744.48;102733;277;96337;-58
2023/04/14 07:00:22;;;;;;;;;;;;;;;12.66;79.52;99745.27;102747;277;120059;-60
2023/04/14 07:02:57;;;;;;;;;;;;;;;12.96;79.47;99741.95;102758;277;106140;-56
2023/04/14 07:05:32;;;;;;;;;;;;;;;13.36;78.64;99744.89;102732;277;112932;-56
2023/04/14 07:08:13;;;;;;;;;;;;;;;13.91;77.37;99738.84;102697;277;95166;-56
2023/04/14 07:11:01;;;;;;;;;;;;;;;14.47;77.13;99737.32;102747;277;97972;-58
2023/04/14 07:13:39;;;;;;;;;;;;;;;15.02;75.82;99737.55;102742;277;120140;-60
2023/04/14 07:16:16;;;;;;;;;;;;;;;14.98;74.10;99734.69;102700;277;106072;-60
2023/04/14 07:18:57;;;;;;;;;;;;;;;15.20;73.72;99735.11;102722;277;114331;-60
2023/04/14 07:21:36;;;;;;;;;;;;;;;15.68;73.22;99736.73;102533;277;95154;-59
2023/04/14 07:24:19;;;;;;;;;;;;;;;17.57;72.87;99730.30;102747;277;95298;-60
2023/04/14 07:26:58;;;;;;;;;;;;;;;18.87;67.93;99728.61;102739;277;120287;-60
2023/04/14 07:29:38;;;;;;;;;;;;;;;20.18;66.91;99728.81;102755;277;104569;-60
2023/04/14 07:32:15;;;;;;;;;;;;;;;21.45;65.39;99729.81;102713;277;115102;-61
2023/04/14 07:34:50;;;;;;;;;;;;;;;21.64;62.98;99728.94;102726;277;93571;-61
2023/04/14 07:37:30;;;;;;;;;;;;;;;21.40;62.13;99731.27;102782;277;97721;-61
2023/04/14 07:40:07;;;;;;;;;;;;;;;21.72;61.03;99725.49;102752;277;120065;-58
2023/04/14 07:42:46;;;;;;;;;;;;;;;22.59;56.25;99725.35;102768;277;105714;-61
2023/04/14 07:45:27;;;;;;;;;;;;;;;23.06;55.41;99725.33;102702;277;113767;-56
2023/04/14 07:48:07;;;;;;;;;;;;;;;23.45;55.35;99726.29;102721;277;93190;-60
2023/04/14 07:50:39;;;;;;;;;;;;;;;23.98;54.85;99727.12;102764;277;97717;-59
2023/04/14 07:53:16;;;;;;;;;;;;;;;24.91;52.92;99723.91;102730;277;119954;-60
2023/04/14 07:55:56;;;;;;;;;;;;;;;24.90;51.70;99727.64;102688;277;105097;-61
2023/04/14 07:58:31;;;;;;;;;;;;;;;24.99;50.37;99728.67;102724;277;114825;-61
2023/04/14 08:01:05;;;;;;;;;;;;;;;24.63;48.46;99724.28;102743;277;93072;-63
2023/04/14 08:03:39;;;;;;;;;;;;;;;24.85;49.75;99722.86;102724;277;97888;-56
2023/04/14 08:06:19;;;;;;;;;;;;;;;25.49;49.35;99722.11;102727;277;120621;-57
2023/04/14 08:08:58;;;;;;;;;;;;;;;25.40;46.47;99725.20;102725;277;105305;-55
2023/04/14 08:11:33;;;;;;;;;;;;;;;25.09;47.49;99721.29;102560;277;114580;-57
2023/04/14 08:14:10;;;;;;;;;;;;;;;25.51;47.26;99722.70;102773;277;94946;-56
2023/04/14 08:16:46;;;;;;;;;;;;;;;25.24;45.77;99723.89;102735;277;98236;-61
2023/04/14 08:19:21;;;;;;;;;;;;;;;24.60;45.80;99719.06;102716;277;120281;-60
2023/04/14 08:21:55;;;;;;;;;;;;;;;23.98;45.38;99723.92;102760;277;104028;-57
2023/04/14 08:24:36;;;;;;;;;;;;;;;22.87;46.19;99728.77;102739;277;114346;-56
2023/04/14 08:27:12;;;;;;;;;;;;;;;23.01;46.94;99719.59;102709;277;94343;-60
2023/04/14 08:29:50;;;;;;;;;;;;;;;22.87;46.61;99725.04;102720;277;96625;-61
2023/04/14 08:32:31;;;;;;;;;;;;;;;23.33;46.36;99718.95;102731;277;120749;-61
2023/04/14 08:35:07;;;;;;;;;;;;;;;23.96;46.80;99713.13;102775;277;104776;-66
2023/04/14 08:37:40;;;;;;;;;;;;;;;24.69;45.51;99714.63;102760;277;114666;-63
2023/04/14 08:40:16;;;;;;;;;;;;;;;24.47;44.09;99717.98;102746;277;93306;-63
2023/04/14 08:42:51;;;;;;;;;;;;;;;24.44;44.10;99714.42;102722;277;98320;-64
2023/04/14 08:45:32;;;;;;;;;;;;;;;24.53;44.07;99720.87;102734;277;120719;-63
2023/04/14 08:48:05;;;;;;;;;;;;;;;24.35;43.99;99722.63;102777;277;104462;-64
2023/04/14 08:50:44;;;;;;;;;;;;;;;23.98;44.32;99719.51;102568;278;113312;-64
2023/04/14 08:53:21;;;;;;;;;;;;;;;23.98;43.96;99718.73;102732;277;94630;-64
2023/04/14 08:55:57;;;;;;;;;;;;;;;23.95;44.43;99710.60;102739;277;97228;-63
2023/04/14 08:58:35;;;;;;;;;;;;;;;24.11;44.01;99715.01;102722;277;121140;-64
2023/04/14 09:01:11;;;;;;;;;;;;;;;23.93;43.44;99708.81;102749;277;105337;-63
2023/04/14 09:03:47;;;;;;;;;;;;;;;23.51;43.97;99711.08;102659;277;113872;-63
2023/04/14 09:06:26;;;;;;;;;;;;;;;23.21;43.58;99715.13;102724;277;94489;-62
2023/04/14 09:09:02;;;;;;;;;;;;;;;22.51;43.39;99714.10;102722;277;98364;-64
2023/04/14 09:11:40;;;;;;;;;;;;;;;22.50;44.67;99712.96;102718;277;120977;-64
2023/04/14 09:14:18;;;;;;;;;;;;;;;22.60;43.85;99711.75;102748;277;106697;-64
2023/04/14 09:17:01;;;;;;;;;;;;;;;22.17;44.43;99716.48;102718;277;114869;-62
2023/04/14 09:19:38;;;;;;;;;;;;;;;21.46;44.66;99715.66;102759;277;94481;-63
2023/04/14 09:22:16;;;;;;;;;;;;;;;21.10;45.41;99706.60;102766;277;97532;-64
2023/04/14 09:24:51;;;;;;;;;;;;;;;20.85;46.18;99707.95;102720;277;118700;-59
2023/04/14 09:27:34;;;;;;;;;;;;;;;20.70;46.83;99709.58;102279;277;565163;-56
2023/04/14 09:30:10;;;;;;;;;;;;;;;20.54;47.03;99703.23;102635;277;115080;-56
2023/04/14 09:32:43;;;;;;;;;;;;;;;20.01;47.42;99710.15;102744;277;93176;-56
2023/04/14 09:35:22;;;;;;;;;;;;;;;19.39;48.32;99709.46;102760;277;97787;-56
2023/04/14 09:37:57;;;;;;;;;;;;;;;18.70;49.13;99708.16;102737;277;119551;-60
2023/04/14 09:40:37;;;;;;;;;;;;;;;18.31;50.35;99714.27;102734;277;106329;-59
2023/04/14 09:43:22;;;;;;;;;;;;;;;18.15;50.83;99714.95;102701;277;114592;-60
2023/04/14 09:45:58;;;;;;;;;;;;;;;18.13;51.53;99713.23;102744;277;94901;-59
2023/04/14 09:48:36;;;;;;;;;;;;;;;17.96;52.25;99709.68;102700;277;97450;-59
2023/04/14 09:51:12;;;;;;;;;;;;;;;17.79;52.66;99717.08;102737;277;121297;-56
2023/04/14 09:53:50;;;;;;;;;;;;;;;17.90;52.88;99709.71;102732;277;106084;-56
2023/04/14 09:56:27;;;;;;;;;;;;;;;17.99;53.04;99707.22;102704;277;114405;-61
2023/04/14 09:59:01;;;;;;;;;;;;;;;18.16;52.79;99712.35;102737;277;94338;-60
2023/04/14 10:01:36;;;;;;;;;;;;;;;18.35;52.71;99701.46;102722;277;98641;-56
2023/04/14 10:04:23;;;;;;;;;;;;;;;18.40;52.91;99696.17;102731;277;119921;-57
2023/04/14 10:06:58;;;;;;;;;;;;;;;18.69;52.82;99697.20;102742;277;103668;-60
2023/04/14 10:09:39;;;;;;;;;;;;;;;18.75;52.59;99697.20;102728;277;114208;-61
2023/04/14 10:12:17;;;;;;;;;;;;;;;18.52;52.66;99694.71;102727;277;92735;-55
2023/04/14 10:15:00;;;;;;;;;;;;;;;18.58;52.90;99689.16;102770;277;96926;-57
2023/04/14 10:17:37;;;;;;;;;;;;;;;18.68;53.21;99688.20;102696;277;120283;-58
2023/04/14 10:20:11;;;;;;;;;;;;;;;18.81;52.76;99679.05;102738;277;106775;-59
2023/04/14 10:22:53;;;;;;;;;;;;;;;18.77;52.65;99680.80;102750;277;114676;-54
2023/04/14 10:25:27;;;;;;;;;;;;;;;18.72;52.84;99685.24;102752;277;93441;-56
2023/04/14 10:28:01;;;;;;;;;;;;;;;18.80;52.53;99684.44;102736;277;98492;-56
2023/04/14 10:30:39;;;;;;;;;;;;;;;18.71;52.46;99680.73;102782;277;120494;-56
2023/04/14 10:33:14;;;;;;;;;;;;;;;18.48;52.56;99672.45;102765;277;105527;-57
2023/04/14 10:35:53;;;;;;;;;;;;;;;18.47;52.83;99675.50;102729;277;115274;-60
2023/04/14 10:38:41;;;;;;;;;;;;;;;18.42;52.89;99680.27;102736;277;95593;-60
2023/04/14 10:41:14;;;;;;;;;;;;;;;18.25;53.05;99676.38;102740;277;96606;-60
2023/04/14 10:43:51;;;;;;;;;;;;;;;18.04;53.36;99689.79;102723;277;120206;-60
2023/04/14 10:46:42;;;;;;;;;;;;;;;18.11;53.31;99677.91;102708;277;105493;-57
2023/04/14 10:49:18;;;;;;;;;;;;;;;18.19;53.47;99683.63;102680;277;114635;-57
2023/04/14 10:51:53;;;;;;;;;;;;;;;18.44;53.56;99678.92;102740;277;93892;-60
2023/04/14 10:54:50;;;;;;;;;;;;;;;18.38;53.35;99679.02;102549;277;96318;-59
2023/04/14 10:57:30;;;;;;;;;;;;;;;17.90;53.45;99677.48;102762;277;120474;-60
2023/04/14 11:00:21;;;;;;;;;;;;;;;17.52;54.26;99683.67;102781;277;105162;-60
2023/04/14 11:03:10;;;;;;;;;;;;;;;17.14;54.79;99681.51;102704;277;113187;-56
2023/04/14 11:05:49;;;;;;;;;;;;;;;17.25;55.20;99674.76;102729;277;94747;-56
2023/04/14 11:08:34;;;;;;;;;;;;;;;17.24;55.25;99678.71;102761;277;95193;-56
2023/04/14 11:11:11;;;;;;;;;;;;;;;17.00;55.64;99678.61;102737;277;120256;-60
2023/04/14 11:13:45;;;;;;;;;;;;;;;17.05;55.55;99674.77;102514;277;104809;-60
2023/04/14 11:16:29;;;;;;;;;;;;;;;17.22;55.27;99674.27;102702;277;114518;-59
2023/04/14 11:19:15;;;;;;;;;;;;;;;17.12;55.04;99665.48;102720;277;94799;-61
2023/04/14 11:21:52;;;;;;;;;;;;;;;17.07;54.87;99664.32;102778;277;96463;-57
2023/04/14 11:24:31;;;;;;;;;;;;;;;17.16;54.83;99663.25;102728;277;120173;-56
2023/04/14 11:27:11;;;;;;;;;;;;;;;17.16;54.76;99666.52;102738;277;105311;-56
2023/04/14 11:29:52;;;;;;;;;;;;;;;17.07;54.54;99665.30;102727;277;114612;-57
2023/04/14 11:32:25;;;;;;;;;;;;;;;16.97;54.44;99661.21;102751;277;94747;-61
2023/04/14 11:35:06;;;;;;;;;;;;;;;16.83;54.53;99663.98;102747;277;97430;-61
2023/04/14 11:37:42;;;;;;;;;;;;;;;16.73;54.43;99651.70;102740;277;120929;-63
2023/04/14 11:40:19;;;;;;;;;;;;;;;16.80;54.45;99645.10;102743;277;104965;-67
2023/04/14 11:42:56;;;;;;;;;;;;;;;17.06;54.39;99643.23;102698;277;114293;-63
2023/04/14 11:45:33;;;;;;;;;;;;;;;17.34;54.46;99640.42;102778;277;94492;-57
2023/04/14 11:48:11;;;;;;;;;;;;;;;17.52;54.80;99636.31;102734;277;98174;-56
2023/04/14 11:50:45;;;;;;;;;;;;;;;17.54;53.86;99644.48;102764;277;120240;-60
2023/04/14 11:53:24;;;;;;;;;;;;;;;17.52;53.55;99640.97;102744;277;105890;-61
2023/04/14 11:55:58;;;;;;;;;;;;;;;17.43;53.32;99648.19;102738;277;113642;-57
2023/04/14 11:58:44;;;;;;;;;;;;;;;17.34;53.59;99643.14;102738;277;93820;-57
2023/04/14 12:01:29;;;;;;;;;;;;;;;17.25;53.55;99646.23;102760;277;97664;-54
2023/04/14 12:04:06;;;;;;;;;;;;;;;17.26;53.75;99641.18;102726;277;121364;-57
2023/04/14 12:06:47;;;;;;;;;;;;;;;17.28;53.38;99639.73;102744;277;106422;-60
2023/04/14 12:09:29;;;;;;;;;;;;;;;17.25;53.32;99635.38;102755;277;115043;-61
2023/04/14 12:12:12;;;;;;;;;;;;;;;17.38;53.19;99627.92;102756;277;94306;-57
2023/04/14 12:14:49;;;;;;;;;;;;;;;17.36;53.19;99631.66;102755;277;97276;-55
2023/04/14 12:17:29;;;;;;;;;;;;;;;17.19;53.41;99627.81;102786;277;120637;-61
2023/04/14 12:20:04;;;;;;;;;;;;;;;17.01;53.46;99627.82;102698;277;104836;-61
2023/04/14 12:22:42;;;;;;;;;;;;;;;16.89;53.85;99625.73;102724;277;115041;-57
2023/04/14 12:25:21;;;;;;;;;;;;;;;16.81;54.10;99624.51;102725;277;93259;-57
2023/04/14 12:28:04;;;;;;;;;;;;;;;16.84;54.17;99616.42;102703;277;97077;-56
2023/04/14 12:30:53;;;;;;;;;;;;;;;16.90;54.29;99623.36;102709;277;119534;-60
2023/04/14 12:33:35;;;;;;;;;;;;;;;16.74;54.25;99619.03;102740;277;105477;-61
2023/04/14 12:36:16;;;;;;;;;;;;;;;16.57;54.22;99617.73;102745;266;114957;-55
2023/04/14 12:38:54;;;;;;;;;;;;;;;16.60;54.49;99616.61;102642;278;93338;-56
2023/04/14 12:41:33;;;;;;;;;;;;;;;16.59;54.61;99615.63;102534;277;98192;-56
2023/04/14 12:44:17;;;;;;;;;;;;;;;16.49;54.30;99604.80;102746;277;121106;-55
2023/04/14 12:46:58;;;;;;;;;;;;;;;16.50;54.33;99598.34;102742;277;106500;-61
2023/04/14 12:49:37;;;;;;;;;;;;;;;16.57;54.22;99597.22;102695;277;114926;-61
2023/04/14 12:52:32;;;;;;;;;;;;;;;16.62;54.04;99596.42;102764;277;93060;-60
2023/04/14 12:55:07;;;;;;;;;;;;;;;16.54;53.21;99593.30;102733;277;98184;-60
2023/04/14 12:57:41;;;;;;;;;;;;;;;16.58;53.16;99584.90;102793;277;120563;-56
2023/04/14 13:00:18;;;;;;;;;;;;;;;16.62;53.21;99580.44;102729;277;106200;-56
2023/04/14 13:03:00;;;;;;;;;;;;;;;16.81;53.48;99576.59;102735;277;114859;-60
2023/04/14 13:05:35;;;;;;;;;;;;;;;17.08;53.28;99569.48;102716;277;95103;-59
2023/04/14 13:08:11;;;;;;;;;;;;;;;17.33;52.79;99565.94;102726;277;97107;-60
2023/04/14 13:11:07;;;;;;;;;;;;;;;17.44;52.06;99578.48;102739;277;120721;-61
2023/04/14 13:13:44;;;;;;;;;;;;;;;17.27;51.95;99573.00;102712;277;105745;-60
2023/04/14 13:16:21;;;;;;;;;;;;;;;17.21;52.25;99578.83;102735;277;115506;-57
2023/04/14 13:19:07;;;;;;;;;;;;;;;17.04;52.08;99583.93;102725;277;94555;-57
2023/04/14 13:21:45;;;;;;;;;;;;;;;16.83;52.93;99583.50;102762;277;97144;-56
2023/04/14 13:24:23;;;;;;;;;;;;;;;16.59;53.70;99581.15;102716;277;120508;-57
2023/04/14 13:27:01;;;;;;;;;;;;;;;16.41;54.26;99588.02;102762;277;106156;-60
2023/04/14 13:29:42;;;;;;;;;;;;;;;16.17;54.52;99590.40;102750;277;113661;-56
2023/04/14 13:32:15;;;;;;;;;;;;;;;16.03;54.74;99591.15;102725;277;93892;-58
2023/04/14 13:34:54;;;;;;;;;;;;;;;16.03;55.15;99585.38;102788;277;96908;-60
2023/04/14 13:37:38;;;;;;;;;;;;;;;16.10;55.19;99585.84;102762;277;120453;-56
2023/04/14 13:41:01;;;;;;;;;;;;;;;16.25;55.20;99585.50;102651;277;106121;-57
2023/04/14 13:43:57;;;;;;;;;;;;;;;16.48;54.45;99581.71;102552;277;114875;-60
2023/04/14 13:46:47;;;;;;;;;;;;;;;16.61;54.02;99579.24;102767;277;94107;-61